Time;durP1;ratioP1;P1;durP2;ratioP2;P2;SDS_P1;SDS_P2;PMS_P1;PMS_P2;Temp;Humidity;BMP_temperature;BMP_pressure;BME280_temperature;BME280_humidity;BME280_pressure;Samples;Min_cycle;Max_cycle;Signal;HPM_P1;HPM_P2
2023/12/02 00:00:03;;;;;;;14.17;11.47;;;-1.90;1.00;;;;;;5077678;28;20461;-59
2023/12/02 00:02:30;;;;;;;17.57;12.17;;;-2.00;1.00;;;;;;5077601;28;20460;-59
2023/12/02 00:04:57;;;;;;;15.67;11.40;;;-2.00;1.00;;;;;;5077584;28;20528;-58
2023/12/02 00:07:28;;;;;;;16.53;11.93;;;-2.00;1.00;;;;;;5077136;28;20473;-59
2023/12/02 00:09:56;;;;;;;15.80;12.30;;;-2.00;1.00;;;;;;5077189;28;20944;-57
2023/12/02 00:12:23;;;;;;;15.87;12.80;;;-2.00;1.00;;;;;;5077506;28;20736;-56
2023/12/02 00:14:50;;;;;;;18.80;12.20;;;-2.00;1.00;;;;;;5077309;28;20465;-58
2023/12/02 00:17:18;;;;;;;17.07;13.63;;;-2.00;1.00;;;;;;5077567;28;20824;-57
2023/12/02 00:19:45;;;;;;;18.53;13.80;;;-2.00;1.00;;;;;;5077145;28;20436;-58
2023/12/02 00:22:12;;;;;;;19.00;13.50;;;-1.90;1.00;;;;;;5077521;28;20457;-58
2023/12/02 00:24:41;;;;;;;16.17;12.33;;;-1.80;1.00;;;;;;5077257;28;20461;-59
2023/12/02 00:27:08;;;;;;;20.30;13.53;;;-1.90;1.00;;;;;;5077272;28;20462;-59
2023/12/02 00:29:35;;;;;;;16.57;13.30;;;-1.90;1.00;;;;;;5076947;28;20522;-57
2023/12/02 00:32:02;;;;;;;17.77;13.70;;;-1.90;1.00;;;;;;5077342;28;20940;-58
2023/12/02 00:34:30;;;;;;;17.20;13.90;;;-1.90;1.00;;;;;;5077120;28;20556;-58
2023/12/02 00:36:57;;;;;;;17.37;13.70;;;-1.80;1.00;;;;;;5077625;28;20463;-58
2023/12/02 00:39:24;;;;;;;19.07;13.83;;;-1.80;1.00;;;;;;5080157;28;20488;-56
2023/12/02 00:41:52;;;;;;;16.50;12.30;;;-1.80;1.00;;;;;;5080642;28;20462;-57
2023/12/02 00:44:20;;;;;;;18.73;14.73;;;-1.80;1.00;;;;;;5080676;28;20989;-58
2023/12/02 00:46:47;;;;;;;16.20;13.57;;;-1.80;1.00;;;;;;5081036;28;20511;-58
2023/12/02 00:49:14;;;;;;;16.30;13.07;;;-1.90;1.00;;;;;;5080986;28;20547;-57
2023/12/02 00:51:41;;;;;;;18.43;14.23;;;-1.90;1.00;;;;;;5080635;28;20454;-56
2023/12/02 00:54:10;;;;;;;18.13;14.40;;;-1.90;1.00;;;;;;5080260;28;20742;-58
2023/12/02 00:56:37;;;;;;;20.53;15.53;;;-1.80;1.00;;;;;;5080897;28;20485;-57
2023/12/02 00:59:06;;;;;;;24.63;16.20;;;-1.80;1.00;;;;;;5080738;28;20490;-58
2023/12/02 01:01:33;;;;;;;19.50;14.27;;;-1.80;1.00;;;;;;5079959;28;20458;-58
2023/12/02 01:04:00;;;;;;;19.50;15.83;;;-1.80;1.00;;;;;;5079992;28;20544;-56
2023/12/02 01:06:27;;;;;;;23.80;17.47;;;-1.70;1.00;;;;;;5080488;28;20526;-56
2023/12/02 01:08:54;;;;;;;20.23;15.67;;;-1.80;1.00;;;;;;5080108;28;20489;-59
2023/12/02 01:11:22;;;;;;;19.57;15.50;;;-1.80;1.00;;;;;;5080395;28;20883;-55
2023/12/02 01:13:49;;;;;;;20.63;15.80;;;-1.80;1.00;;;;;;5080244;28;20911;-56
2023/12/02 01:16:17;;;;;;;20.70;16.13;;;-1.90;1.00;;;;;;5080225;28;20464;-59
2023/12/02 01:18:44;;;;;;;18.83;15.33;;;-1.80;1.00;;;;;;5078880;28;20489;-59
2023/12/02 01:21:12;;;;;;;20.50;15.47;;;-1.80;1.00;;;;;;5078044;28;20455;-58
2023/12/02 01:23:39;;;;;;;18.27;13.90;;;-1.80;1.00;;;;;;5078427;28;20458;-56
2023/12/02 01:26:07;;;;;;;16.47;13.67;;;-1.80;1.00;;;;;;5078527;28;20608;-55
2023/12/02 01:28:34;;;;;;;17.97;13.87;;;-1.80;1.00;;;;;;5078527;28;20428;-57
2023/12/02 01:31:01;;;;;;;18.00;13.43;;;-1.80;1.00;;;;;;5078505;28;20922;-58
2023/12/02 01:33:29;;;;;;;18.20;12.50;;;-1.80;1.00;;;;;;5078970;28;20458;-56
2023/12/02 01:35:59;;;;;;;16.40;12.93;;;-1.80;1.00;;;;;;5079283;28;20458;-58
2023/12/02 01:38:26;;;;;;;16.27;13.10;;;-1.80;1.00;;;;;;5079112;28;20472;-58
2023/12/02 01:40:54;;;;;;;14.53;11.90;;;-1.90;1.00;;;;;;5078607;28;20433;-58
2023/12/02 01:43:25;;;;;;;15.53;13.23;;;-1.80;1.00;;;;;;5078056;28;20760;-58
2023/12/02 01:45:52;;;;;;;16.80;13.60;;;-1.90;1.00;;;;;;5078144;28;20465;-58
2023/12/02 01:48:20;;;;;;;16.90;12.67;;;-1.80;1.00;;;;;;5077722;28;20440;-56
2023/12/02 01:50:49;;;;;;;18.33;13.90;;;-1.80;1.00;;;;;;5076928;28;20477;-57
2023/12/02 01:53:16;;;;;;;18.17;13.73;;;-1.90;1.00;;;;;;5078080;28;20458;-57
2023/12/02 01:55:44;;;;;;;16.27;13.60;;;-1.80;1.00;;;;;;5078712;28;20893;-58
2023/12/02 01:58:11;;;;;;;16.13;12.40;;;-1.80;1.00;;;;;;5079601;28;20819;-58
2023/12/02 02:00:39;;;;;;;17.00;13.13;;;-1.80;1.00;;;;;;5079430;28;20843;-57
2023/12/02 02:03:06;;;;;;;18.17;13.20;;;-1.70;1.00;;;;;;5079610;28;20773;-58
2023/12/02 02:05:33;;;;;;;14.63;12.10;;;-1.80;1.00;;;;;;5078862;28;20461;-58
2023/12/02 02:08:02;;;;;;;13.80;10.73;;;-1.80;1.00;;;;;;5078653;28;20482;-57
2023/12/02 02:10:29;;;;;;;17.30;11.57;;;-1.80;1.00;;;;;;5078974;28;20457;-58
2023/12/02 02:12:56;;;;;;;16.07;12.77;;;-1.90;1.00;;;;;;5078798;28;20437;-58
2023/12/02 02:15:24;;;;;;;15.47;12.00;;;-1.90;1.00;;;;;;5079061;28;20464;-58
2023/12/02 02:17:51;;;;;;;13.93;11.57;;;-1.90;1.00;;;;;;5079190;28;20461;-58
2023/12/02 02:20:18;;;;;;;13.07;11.20;;;-1.90;1.00;;;;;;5079389;28;20848;-57
2023/12/02 02:22:46;;;;;;;14.30;12.03;;;-1.90;1.00;;;;;;5078832;28;20493;-58
2023/12/02 02:25:14;;;;;;;15.60;11.73;;;-1.90;1.00;;;;;;5078906;28;20471;-57
2023/12/02 02:27:41;;;;;;;13.73;11.80;;;-1.80;1.00;;;;;;5078815;28;20903;-56
2023/12/02 02:30:09;;;;;;;14.80;12.40;;;-1.80;1.00;;;;;;5078765;28;20778;-58
2023/12/02 02:32:36;;;;;;;17.43;11.97;;;-1.80;1.00;;;;;;5078718;28;20785;-57
2023/12/02 02:35:03;;;;;;;18.83;13.40;;;-1.90;1.00;;;;;;5078895;28;20432;-58
2023/12/02 02:37:30;;;;;;;15.13;12.07;;;-1.80;1.00;;;;;;5078717;28;20465;-57
2023/12/02 02:39:59;;;;;;;15.17;12.90;;;-1.80;1.00;;;;;;5078524;28;20494;-59
2023/12/02 02:42:26;;;;;;;15.37;12.80;;;-1.90;1.00;;;;;;5078314;28;20457;-58
2023/12/02 02:44:53;;;;;;;15.53;12.30;;;-1.80;1.00;;;;;;5078816;28;20484;-58
2023/12/02 02:47:20;;;;;;;16.73;13.30;;;-1.80;1.00;;;;;;5078619;28;20462;-58
2023/12/02 02:49:47;;;;;;;16.93;13.90;;;-1.80;1.00;;;;;;5078632;28;20428;-58
2023/12/02 02:52:14;;;;;;;16.43;14.03;;;-1.80;1.00;;;;;;5078428;28;20461;-56
2023/12/02 02:54:41;;;;;;;19.93;13.63;;;-1.80;1.00;;;;;;5078267;28;20472;-58
2023/12/02 02:57:10;;;;;;;17.93;14.30;;;-1.80;1.00;;;;;;5078579;28;20462;-57
2023/12/02 02:59:37;;;;;;;17.70;15.27;;;-1.70;1.00;;;;;;5078024;28;20490;-58
2023/12/02 03:02:05;;;;;;;16.77;13.27;;;-1.70;1.00;;;;;;5077595;28;20549;-58
2023/12/02 03:04:32;;;;;;;19.00;14.30;;;-1.70;1.00;;;;;;5076783;28;20463;-59
2023/12/02 03:06:59;;;;;;;18.73;15.07;;;-1.70;1.00;;;;;;5077554;28;20492;-56
2023/12/02 03:09:26;;;;;;;18.53;14.40;;;-1.70;1.00;;;;;;5076891;28;20871;-56
2023/12/02 03:11:53;;;;;;;17.00;14.17;;;-1.70;1.00;;;;;;5076450;28;20464;-58
2023/12/02 03:14:22;;;;;;;16.90;13.33;;;-1.80;1.00;;;;;;5076699;28;20555;-57
2023/12/02 03:16:49;;;;;;;16.83;13.93;;;-1.80;1.00;;;;;;5075715;28;20511;-58
2023/12/02 03:19:16;;;;;;;17.03;14.03;;;-1.90;1.00;;;;;;5075992;28;20497;-57
2023/12/02 03:21:43;;;;;;;17.80;14.83;;;-1.90;1.00;;;;;;5076370;28;20558;-58
2023/12/02 03:24:11;;;;;;;18.00;14.40;;;-1.80;1.00;;;;;;5077010;28;20465;-56
2023/12/02 03:26:38;;;;;;;17.47;14.03;;;-1.90;1.00;;;;;;5078024;28;20438;-58
2023/12/02 03:29:05;;;;;;;17.30;13.10;;;-1.80;1.00;;;;;;5077815;28;20454;-56
2023/12/02 03:31:34;;;;;;;16.03;12.60;;;-1.90;1.00;;;;;;5077404;28;20564;-59
2023/12/02 03:34:01;;;;;;;15.93;12.70;;;-1.90;1.00;;;;;;5077550;28;20457;-59
2023/12/02 03:36:28;;;;;;;19.50;13.97;;;-2.00;1.00;;;;;;5077599;28;20457;-58
2023/12/02 03:38:55;;;;;;;16.10;12.43;;;-2.00;1.00;;;;;;5078050;28;20791;-59
2023/12/02 03:41:23;;;;;;;15.83;12.93;;;-2.00;1.00;;;;;;5077856;28;20553;-59
2023/12/02 03:43:50;;;;;;;17.87;14.03;;;-2.00;1.00;;;;;;5078100;28;20515;-59
2023/12/02 03:46:18;;;;;;;17.30;12.57;;;-2.00;1.00;;;;;;5077867;28;20453;-57
2023/12/02 03:48:46;;;;;;;17.43;14.00;;;-1.90;1.00;;;;;;5077575;28;20904;-56
2023/12/02 03:51:14;;;;;;;20.43;13.97;;;-1.90;1.00;;;;;;5077521;28;20453;-57
2023/12/02 03:53:41;;;;;;;19.93;14.73;;;-1.90;1.00;;;;;;5078010;28;20455;-57
2023/12/02 03:56:09;;;;;;;15.67;13.17;;;-1.90;1.00;;;;;;5077613;28;20742;-58
2023/12/02 03:58:37;;;;;;;16.37;12.70;;;-1.90;1.00;;;;;;5077097;28;20509;-56
2023/12/02 04:01:04;;;;;;;16.93;13.33;;;-1.90;1.00;;;;;;5077915;28;20460;-56
2023/12/02 04:03:31;;;;;;;18.07;14.67;;;-1.90;1.00;;;;;;5076680;28;20461;-55
2023/12/02 04:06:00;;;;;;;19.80;15.50;;;-1.90;1.00;;;;;;5077596;28;20457;-58
2023/12/02 04:08:27;;;;;;;16.93;13.83;;;-2.00;1.00;;;;;;5077259;28;20461;-57
2023/12/02 04:10:54;;;;;;;20.87;16.13;;;-2.00;1.00;;;;;;5077489;28;20836;-57
2023/12/02 04:13:22;;;;;;;21.23;16.07;;;-2.10;1.00;;;;;;5080221;28;20808;-57
2023/12/02 04:15:49;;;;;;;18.00;14.80;;;-2.10;1.00;;;;;;5081271;28;20467;-58
2023/12/02 04:18:16;;;;;;;18.70;15.40;;;-2.10;1.00;;;;;;5081526;28;20457;-58
2023/12/02 04:20:43;;;;;;;22.00;15.53;;;-2.10;1.00;;;;;;5081305;28;20460;-59
2023/12/02 04:23:12;;;;;;;17.40;12.73;;;-2.10;1.00;;;;;;5081365;28;20472;-56
2023/12/02 04:25:39;;;;;;;20.00;15.00;;;-2.10;1.00;;;;;;5081391;28;20886;-58
2023/12/02 04:28:07;;;;;;;23.70;15.43;;;-2.10;1.00;;;;;;5081696;28;20467;-58
2023/12/02 04:30:34;;;;;;;19.07;14.07;;;-2.10;1.00;;;;;;5080654;28;20457;-57
2023/12/02 04:33:02;;;;;;;20.73;15.10;;;-2.00;1.00;;;;;;5080826;28;20462;-56
2023/12/02 04:35:30;;;;;;;22.70;15.70;;;-2.00;1.00;;;;;;5081025;28;20531;-59
2023/12/02 04:37:58;;;;;;;20.53;16.20;;;-2.10;1.00;;;;;;5081345;28;20461;-56
2023/12/02 04:40:26;;;;;;;19.57;14.60;;;-2.10;1.00;;;;;;5080776;28;20500;-57
2023/12/02 04:42:53;;;;;;;19.43;14.33;;;-2.20;1.00;;;;;;5080995;28;20736;-55
2023/12/02 04:45:20;;;;;;;19.87;15.30;;;-2.20;1.00;;;;;;5081381;28;20492;-56
2023/12/02 04:47:48;;;;;;;20.90;14.97;;;-2.20;1.00;;;;;;5080969;28;20890;-58
2023/12/02 04:50:15;;;;;;;19.97;14.97;;;-2.30;1.00;;;;;;5080909;28;20923;-58
2023/12/02 04:52:42;;;;;;;20.37;15.13;;;-2.20;1.00;;;;;;5080950;28;20469;-57
2023/12/02 04:55:10;;;;;;;18.80;14.17;;;-2.20;1.00;;;;;;5080921;28;20536;-56
2023/12/02 04:57:38;;;;;;;18.90;14.53;;;-2.20;1.00;;;;;;5080818;28;20516;-58
2023/12/02 05:00:13;;;;;;;19.27;14.60;;;-2.20;1.00;;;;;;5081058;28;20496;-58
2023/12/02 05:02:41;;;;;;;21.70;15.60;;;-2.20;1.00;;;;;;5080689;28;20465;-56
2023/12/02 05:05:09;;;;;;;21.37;15.97;;;-2.10;1.00;;;;;;5080105;28;20839;-58
2023/12/02 05:07:36;;;;;;;21.87;15.40;;;-2.20;1.00;;;;;;5080065;28;20536;-58
2023/12/02 05:10:05;;;;;;;21.53;15.60;;;-2.10;1.00;;;;;;5079951;28;20453;-58
2023/12/02 05:12:32;;;;;;;19.57;15.07;;;-2.10;1.00;;;;;;5080226;28;20462;-55
2023/12/02 05:15:01;;;;;;;21.90;15.50;;;-2.10;1.00;;;;;;5080423;28;20523;-56
2023/12/02 05:17:28;;;;;;;22.50;14.13;;;-2.20;1.00;;;;;;5080097;28;20468;-54
2023/12/02 05:19:55;;;;;;;20.40;15.60;;;-2.10;1.00;;;;;;5080787;28;20493;-56
2023/12/02 05:22:22;;;;;;;19.10;14.23;;;-2.10;1.00;;;;;;5079879;28;20761;-57
2023/12/02 05:24:49;;;;;;;17.70;14.03;;;-2.10;1.00;;;;;;5079004;28;20835;-56
2023/12/02 05:27:17;;;;;;;18.17;14.10;;;-2.10;1.00;;;;;;5080166;28;20467;-58
2023/12/02 05:29:44;;;;;;;20.27;14.57;;;-2.20;1.00;;;;;;5080617;28;20552;-55
2023/12/02 05:32:13;;;;;;;18.83;14.10;;;-2.40;1.00;;;;;;5080309;28;20457;-57
2023/12/02 05:34:40;;;;;;;18.83;14.07;;;-2.30;1.00;;;;;;5080051;28;20966;-57
2023/12/02 05:37:07;;;;;;;18.93;13.03;;;-2.20;1.00;;;;;;5080310;28;20548;-55
2023/12/02 05:39:35;;;;;;;21.40;14.90;;;-2.20;1.00;;;;;;5079895;28;20486;-58
2023/12/02 05:42:03;;;;;;;19.07;14.67;;;-2.20;1.00;;;;;;5080037;28;20457;-56
2023/12/02 05:44:32;;;;;;;19.47;13.47;;;-2.20;1.00;;;;;;5079119;28;20436;-55
2023/12/02 05:46:59;;;;;;;18.87;13.67;;;-2.20;1.00;;;;;;5059510;28;20494;-55
2023/12/02 05:49:28;;;;;;;20.27;14.07;;;-2.20;1.00;;;;;;5059612;28;20469;-55
2023/12/02 05:51:55;;;;;;;21.13;13.90;;;-2.10;1.00;;;;;;5059181;28;20458;-56
2023/12/02 05:54:22;;;;;;;17.67;13.77;;;-2.20;1.00;;;;;;5059699;28;20472;-57
2023/12/02 05:56:52;;;;;;;20.70;13.97;;;-2.20;1.00;;;;;;5059660;28;20464;-57
2023/12/02 05:59:19;;;;;;;18.83;14.30;;;-2.30;1.00;;;;;;5059426;28;20811;-58
2023/12/02 06:01:47;;;;;;;17.70;13.20;;;-2.30;1.00;;;;;;5059233;28;20458;-58
2023/12/02 06:04:14;;;;;;;19.07;13.70;;;-2.40;99.90;;;;;;5059187;28;20458;-61
2023/12/02 06:06:46;;;;;;;18.27;13.10;;;-2.40;99.90;;;;;;5058466;28;20527;-61
2023/12/02 06:09:13;;;;;;;20.77;14.27;;;-2.30;1.00;;;;;;5058774;28;20539;-60
2023/12/02 06:11:40;;;;;;;19.10;13.53;;;-2.30;1.00;;;;;;5058415;28;20531;-61
2023/12/02 06:14:07;;;;;;;20.03;14.23;;;-2.20;1.00;;;;;;5058075;28;20454;-60
2023/12/02 06:16:35;;;;;;;17.63;12.73;;;-2.20;1.00;;;;;;5058464;28;20429;-61
2023/12/02 06:19:02;;;;;;;18.90;13.53;;;-2.20;1.00;;;;;;5058210;28;20458;-60
2023/12/02 06:21:30;;;;;;;20.00;14.37;;;-2.20;1.00;;;;;;5057637;28;20458;-60
2023/12/02 06:23:58;;;;;;;21.20;14.90;;;-2.20;1.00;;;;;;5058059;28;20464;-60
2023/12/02 06:26:25;;;;;;;19.43;14.47;;;-2.10;1.00;;;;;;5058155;28;20532;-60
2023/12/02 06:28:53;;;;;;;20.17;14.37;;;-2.00;1.00;;;;;;5058582;28;20744;-61
2023/12/02 06:31:20;;;;;;;19.30;14.27;;;-2.00;1.00;;;;;;5058391;28;20433;-61
2023/12/02 06:33:48;;;;;;;22.13;15.60;;;-2.10;1.00;;;;;;5057808;28;20440;-60
2023/12/02 06:36:15;;;;;;;19.70;14.17;;;-2.00;1.00;;;;;;5057606;28;20530;-61
2023/12/02 06:38:42;;;;;;;20.50;13.67;;;-2.00;1.00;;;;;;5058410;28;20476;-61
2023/12/02 06:41:11;;;;;;;21.70;13.97;;;-2.00;1.00;;;;;;5057955;28;20545;-59
2023/12/02 06:43:38;;;;;;;21.10;14.80;;;-2.00;1.00;;;;;;5058074;28;20734;-59
2023/12/02 06:46:06;;;;;;;20.50;15.20;;;-2.00;1.00;;;;;;5058367;28;20459;-59
2023/12/02 06:48:33;;;;;;;20.23;14.23;;;-2.10;99.90;;;;;;5057844;28;20557;-59
2023/12/02 06:51:02;;;;;;;18.90;13.97;;;-2.20;99.90;;;;;;5057991;28;20464;-59
2023/12/02 06:53:29;;;;;;;18.83;14.20;;;-2.10;1.00;;;;;;5057737;28;20533;-59
2023/12/02 06:55:56;;;;;;;19.77;12.87;;;-2.10;1.00;;;;;;5058005;28;20758;-60
2023/12/02 06:58:25;;;;;;;20.53;13.03;;;-2.30;99.90;;;;;;5057883;28;20462;-59
2023/12/02 07:00:52;;;;;;;20.40;13.63;;;-2.20;1.00;;;;;;5058305;28;20573;-59
2023/12/02 07:03:19;;;;;;;16.83;13.10;;;-2.20;1.00;;;;;;5057910;28;20751;-59
2023/12/02 07:05:46;;;;;;;18.47;11.57;;;-2.30;99.90;;;;;;5057394;28;20464;-59
2023/12/02 07:08:13;;;;;;;15.47;11.90;;;-2.30;99.90;;;;;;5057487;28;20576;-60
2023/12/02 07:10:43;;;;;;;17.97;12.73;;;-2.20;1.00;;;;;;5057079;28;20461;-59
2023/12/02 07:13:10;;;;;;;16.50;11.70;;;-2.20;1.00;;;;;;5057790;28;20455;-59
2023/12/02 07:15:39;;;;;;;16.73;12.23;;;-2.20;1.00;;;;;;5057148;28;20466;-59
2023/12/02 07:18:06;;;;;;;17.97;12.43;;;-2.20;99.90;;;;;;5057424;28;20734;-59
2023/12/02 07:20:33;;;;;;;17.07;12.63;;;-2.20;99.90;;;;;;5057162;28;20916;-59
2023/12/02 07:23:01;;;;;;;15.40;11.87;;;-2.20;99.90;;;;;;5057573;28;20872;-59
2023/12/02 07:25:28;;;;;;;17.87;12.30;;;-2.20;99.90;;;;;;5057239;28;20462;-59
2023/12/02 07:27:56;;;;;;;17.53;13.23;;;-2.30;99.90;;;;;;5057173;28;20463;-59
2023/12/02 07:30:23;;;;;;;15.60;11.73;;;-2.20;1.00;;;;;;5056546;28;20429;-59
2023/12/02 07:32:51;;;;;;;18.20;12.87;;;-2.30;1.00;;;;;;5056616;28;20892;-59
2023/12/02 07:35:19;;;;;;;18.60;12.53;;;-2.20;1.00;;;;;;5056841;28;20526;-59
2023/12/02 07:37:47;;;;;;;16.57;11.87;;;-2.20;1.00;;;;;;5056310;28;20463;-58
2023/12/02 07:40:15;;;;;;;16.47;12.50;;;-2.10;1.00;;;;;;5056545;28;20831;-59
2023/12/02 07:42:42;;;;;;;16.70;12.17;;;-2.20;1.00;;;;;;5056784;28;20593;-59
2023/12/02 07:45:10;;;;;;;15.73;11.90;;;-2.20;1.00;;;;;;5056247;28;20715;-57
2023/12/02 07:47:37;;;;;;;18.37;13.30;;;-2.10;1.00;;;;;;5056150;28;20470;-59
2023/12/02 07:50:07;;;;;;;15.53;11.23;;;-2.20;1.00;;;;;;5057294;28;20458;-59
2023/12/02 07:52:34;;;;;;;16.87;12.57;;;-2.30;99.90;;;;;;5057134;28;20458;-59
2023/12/02 07:55:02;;;;;;;15.37;11.97;;;-2.40;1.00;;;;;;5056989;28;20751;-57
2023/12/02 07:57:29;;;;;;;16.63;11.17;;;-2.40;1.00;;;;;;5057130;28;20812;-59
2023/12/02 07:59:56;;;;;;;13.43;11.17;;;-2.40;1.00;;;;;;5057304;28;20794;-59
2023/12/02 08:02:24;;;;;;;16.13;11.73;;;-2.40;1.00;;;;;;5058686;28;20448;-59
2023/12/02 08:04:51;;;;;;;14.13;11.50;;;-2.40;1.00;;;;;;5076853;28;20462;-60
2023/12/02 08:07:20;;;;;;;15.70;11.00;;;-2.40;1.00;;;;;;5075255;28;20914;-59
2023/12/02 08:09:47;;;;;;;14.10;10.70;;;-2.50;99.90;;;;;;5076354;28;20570;-59
2023/12/02 08:12:15;;;;;;;15.93;11.90;;;-2.50;1.00;;;;;;5075901;28;20511;-58
2023/12/02 08:14:42;;;;;;;15.07;11.43;;;-2.40;1.00;;;;;;5069760;28;20470;-59
2023/12/02 08:17:10;;;;;;;16.20;11.97;;;-2.40;1.00;;;;;;5055338;28;20901;-58
2023/12/02 08:19:37;;;;;;;17.33;12.67;;;-2.30;1.00;;;;;;5054519;28;20458;-59
2023/12/02 08:22:04;;;;;;;13.83;11.03;;;-2.40;1.00;;;;;;5054580;28;20470;-58
2023/12/02 08:24:35;;;;;;;16.00;12.37;;;-2.50;1.00;;;;;;5053773;28;20472;-57
2023/12/02 08:27:02;;;;;;;16.00;11.40;;;-2.50;99.90;;;;;;5067761;28;20890;-58
2023/12/02 08:29:30;;;;;;;17.10;12.00;;;-2.50;99.90;;;;;;5076442;28;20489;-58
2023/12/02 08:31:57;;;;;;;15.27;10.53;;;-2.30;1.00;;;;;;5076618;28;20432;-59
2023/12/02 08:34:25;;;;;;;14.40;10.60;;;-2.30;99.90;;;;;;5076718;28;20457;-59
2023/12/02 08:36:52;;;;;;;19.20;14.63;;;-2.20;99.90;;;;;;5076243;28;20457;-59
2023/12/02 08:39:19;;;;;;;13.47;10.63;;;-2.30;99.90;;;;;;5076886;28;20850;-59
2023/12/02 08:41:48;;;;;;;14.13;10.80;;;-2.30;99.90;;;;;;5076776;28;20468;-59
2023/12/02 08:44:16;;;;;;;14.93;11.87;;;-2.40;99.90;;;;;;5076521;28;20458;-60
2023/12/02 08:46:43;;;;;;;15.73;11.70;;;-2.40;99.90;;;;;;5075745;28;20548;-59
2023/12/02 08:49:10;;;;;;;15.37;12.23;;;-2.30;99.90;;;;;;5075943;28;20457;-59
2023/12/02 08:51:39;;;;;;;14.97;10.90;;;-2.30;99.90;;;;;;5074239;28;20460;-59
2023/12/02 08:54:06;;;;;;;14.87;11.63;;;-2.20;99.90;;;;;;5075104;28;20879;-59
2023/12/02 08:56:34;;;;;;;16.90;11.70;;;-2.20;99.90;;;;;;5075160;28;20457;-59
2023/12/02 08:59:03;;;;;;;14.80;12.33;;;-2.10;99.90;;;;;;5077174;28;20728;-59
2023/12/02 09:01:31;;;;;;;19.53;13.10;;;-2.00;99.90;;;;;;5078635;28;20581;-58
2023/12/02 09:03:59;;;;;;;14.27;11.27;;;-1.80;99.90;;;;;;5078495;28;20464;-59
2023/12/02 09:06:26;;;;;;;15.70;11.70;;;-1.80;99.90;;;;;;5079082;28;20457;-60
2023/12/02 09:08:55;;;;;;;13.70;11.50;;;-1.70;99.90;;;;;;5078164;28;20501;-58
2023/12/02 09:11:23;;;;;;;16.47;11.83;;;-1.60;99.90;;;;;;5077872;28;20460;-59
2023/12/02 09:13:51;;;;;;;12.87;9.63;;;-1.60;99.90;;;;;;5079177;28;20461;-59
2023/12/02 09:16:23;;;;;;;13.37;9.63;;;-1.40;99.90;;;;;;5079278;28;20569;-59
2023/12/02 09:18:51;;;;;;;14.17;10.60;;;-1.30;99.90;;;;;;5079674;28;20558;-59
2023/12/02 09:21:43;;;;;;;14.63;11.20;;;-1.30;99.90;;;;;;5079627;28;20469;-60
2023/12/02 09:24:40;;;;;;;17.43;12.47;;;-1.20;99.90;;;;;;5073851;28;20997;-59
2023/12/02 09:27:08;;;;;;;15.90;10.03;;;-1.10;99.90;;;;;;5055833;28;20475;-60
2023/12/02 09:29:38;;;;;;;14.83;10.70;;;-1.20;99.90;;;;;;5079334;28;20902;-59
2023/12/02 09:32:38;;;;;;;13.47;10.27;;;-1.20;99.90;;;;;;5078998;28;20488;-59
2023/12/02 09:35:07;;;;;;;13.03;9.87;;;-1.20;99.90;;;;;;5079472;28;20554;-59
2023/12/02 09:37:55;;;;;;;15.27;10.60;;;-1.40;99.90;;;;;;5079081;28;20936;-59
2023/12/02 09:40:55;;;;;;;20.30;13.40;;;-1.50;99.90;;;;;;5079473;28;20494;-59
2023/12/02 09:43:27;;;;;;;18.17;13.90;;;-1.30;99.90;;;;;;5063128;28;20530;-59
2023/12/02 09:46:23;;;;;;;23.13;16.07;;;-1.50;99.90;;;;;;5078168;28;20503;-59
2023/12/02 09:49:10;;;;;;;21.60;14.47;;;-1.50;99.90;;;;;;5098315;28;20948;-59
2023/12/02 09:51:51;;;;;;;20.60;16.27;;;-1.20;99.90;;;;;;5098829;28;20541;-59
2023/12/02 09:54:29;;;;;;;21.73;15.03;;;-1.40;99.90;;;;;;5099476;28;20715;-59
2023/12/02 09:57:01;;;;;;;22.53;15.40;;;-1.60;99.90;;;;;;5099194;28;20801;-59
2023/12/02 09:59:36;;;;;;;22.37;14.77;;;-1.60;99.90;;;;;;5099131;28;20558;-58
2023/12/02 10:02:09;;;;;;;19.70;14.30;;;-1.70;99.90;;;;;;5098470;28;20491;-58
2023/12/02 10:04:47;;;;;;;20.27;14.30;;;-1.70;99.90;;;;;;5098946;28;20503;-58
2023/12/02 10:07:26;;;;;;;23.33;16.60;;;-1.80;99.90;;;;;;5098741;28;20508;-58
2023/12/02 10:10:04;;;;;;;20.20;15.20;;;-1.80;99.90;;;;;;5096527;28;20459;-58
2023/12/02 10:12:46;;;;;;;22.17;15.30;;;-1.70;99.90;;;;;;5097387;28;20462;-57
2023/12/02 10:15:16;;;;;;;23.10;16.00;;;-1.70;99.90;;;;;;5097195;28;20463;-59
2023/12/02 10:17:50;;;;;;;22.60;16.63;;;-1.60;99.90;;;;;;5097364;28;20509;-58
2023/12/02 10:20:26;;;;;;;21.40;15.97;;;-1.30;99.90;;;;;;5097648;28;20467;-57
2023/12/02 10:22:59;;;;;;;19.97;15.30;;;-1.20;99.90;;;;;;5098349;28;20779;-58
2023/12/02 10:25:34;;;;;;;21.50;16.27;;;-1.00;99.90;;;;;;5098308;28;20906;-57
2023/12/02 10:28:12;;;;;;;22.33;16.40;;;-1.20;99.90;;;;;;5098854;28;20803;-58
2023/12/02 10:30:47;;;;;;;19.50;14.37;;;-0.90;99.90;;;;;;5098862;28;20525;-58
2023/12/02 10:33:26;;;;;;;23.70;15.27;;;-0.80;99.90;;;;;;5098726;28;20463;-58
2023/12/02 10:35:58;;;;;;;18.10;14.60;;;-0.70;99.90;;;;;;5098294;28;20471;-58
2023/12/02 10:38:37;;;;;;;24.70;16.50;;;-0.60;99.90;;;;;;5098613;28;20783;-58
2023/12/02 10:41:14;;;;;;;19.57;14.43;;;-0.40;99.90;;;;;;5098316;28;20530;-57
2023/12/02 10:43:44;;;;;;;21.43;15.10;;;-0.40;99.90;;;;;;5098511;28;20892;-58
2023/12/02 10:46:12;;;;;;;20.60;15.23;;;-0.10;99.90;;;;;;5098114;28;20460;-59
2023/12/02 10:48:41;;;;;;;20.70;14.50;;;0.20;99.90;;;;;;5098329;28;20558;-58
2023/12/02 10:51:13;;;;;;;22.47;14.20;;;0.40;99.90;;;;;;5098219;28;20457;-58
2023/12/02 10:53:43;;;;;;;21.80;14.90;;;0.50;99.90;;;;;;5097989;28;20827;-59
2023/12/02 10:56:16;;;;;;;19.20;14.00;;;0.60;99.90;;;;;;5098315;28;20460;-59
2023/12/02 10:58:45;;;;;;;23.00;14.63;;;0.70;99.90;;;;;;5098408;28;20746;-59
2023/12/02 11:01:16;;;;;;;22.90;15.33;;;0.40;99.90;;;;;;5098122;28;20853;-59
2023/12/02 11:03:51;;;;;;;22.90;15.13;;;0.50;99.90;;;;;;5096660;28;20438;-59
2023/12/02 11:06:29;;;;;;;24.57;17.07;;;0.80;99.90;;;;;;5096376;28;20463;-59
2023/12/02 11:09:02;;;;;;;24.43;15.30;;;1.00;99.90;;;;;;5096437;28;20520;-59
2023/12/02 11:11:43;;;;;;;19.77;13.83;;;1.10;99.90;;;;;;5094839;28;20463;-59
2023/12/02 11:14:16;;;;;;;25.47;17.30;;;1.20;99.90;;;;;;5072765;28;20604;-60
2023/12/02 11:16:51;;;;;;;22.53;16.10;;;1.00;99.90;;;;;;5062845;28;20466;-59
2023/12/02 11:19:31;;;;;;;25.10;17.13;;;1.20;99.90;;;;;;5074968;28;20461;-59
2023/12/02 11:22:29;;;;;;;26.40;17.67;;;0.90;99.90;;;;;;5076818;28;21012;-59
2023/12/02 11:25:11;;;;;;;24.00;16.47;;;1.20;99.90;;;;;;5077545;28;20758;-59
2023/12/02 11:27:49;;;;;;;24.17;16.40;;;1.50;99.90;;;;;;5076705;28;20483;-59
2023/12/02 11:30:25;;;;;;;20.90;15.73;;;1.40;99.90;;;;;;5077584;28;20471;-59
2023/12/02 11:33:04;;;;;;;24.03;15.93;;;1.40;99.90;;;;;;5077545;28;20540;-59
2023/12/02 11:35:36;;;;;;;22.80;15.87;;;1.40;99.90;;;;;;5077320;28;20552;-59
2023/12/02 11:38:15;;;;;;;25.00;17.57;;;1.50;99.90;;;;;;5077643;28;20457;-59
2023/12/02 11:40:58;;;;;;;25.13;17.70;;;1.60;99.90;;;;;;5076053;28;20462;-59
2023/12/02 11:43:40;;;;;;;21.10;15.40;;;1.50;99.90;;;;;;5076387;28;20457;-58
2023/12/02 11:46:18;;;;;;;38.60;21.57;;;1.70;99.90;;;;;;5076414;28;20508;-59
2023/12/02 11:48:53;;;;;;;25.50;15.77;;;1.80;99.90;;;;;;5077115;28;20457;-59
2023/12/02 11:51:31;;;;;;;22.00;14.67;;;1.90;99.90;;;;;;5075305;28;20439;-58
2023/12/02 11:54:17;;;;;;;29.70;19.20;;;1.50;99.90;;;;;;5076668;28;20463;-59
2023/12/02 11:56:58;;;;;;;25.20;16.93;;;1.70;99.90;;;;;;5069689;28;20470;-59
2023/12/02 11:59:29;;;;;;;19.97;13.60;;;2.00;99.90;;;;;;5056643;28;20894;-60
2023/12/02 12:02:14;;;;;;;18.97;14.00;;;2.20;99.90;;;;;;5055543;28;20494;-59
2023/12/02 12:05:11;;;;;;;18.30;13.83;;;1.90;99.90;;;;;;5054953;28;20462;-59
2023/12/02 12:07:52;;;;;;;16.83;13.10;;;1.50;99.90;;;;;;5050424;28;20852;-60
2023/12/02 12:10:25;;;;;;;21.27;13.93;;;1.50;99.90;;;;;;5055893;28;20929;-60
2023/12/02 12:12:57;;;;;;;16.50;12.00;;;1.40;99.90;;;;;;5054622;28;20485;-60
2023/12/02 12:15:25;;;;;;;18.93;13.43;;;1.40;99.90;;;;;;5053135;28;20585;-60
2023/12/02 12:17:53;;;;;;;18.10;13.57;;;1.20;99.90;;;;;;5055361;28;20460;-60
2023/12/02 12:20:22;;;;;;;16.17;13.13;;;1.30;99.90;;;;;;5055163;28;20504;-59
2023/12/02 12:22:50;;;;;;;21.80;14.07;;;1.30;99.90;;;;;;5055318;28;20521;-60
2023/12/02 12:25:17;;;;;;;18.53;12.90;;;1.30;99.90;;;;;;5062782;28;20458;-59
2023/12/02 12:27:46;;;;;;;18.27;13.23;;;1.20;99.90;;;;;;5074618;28;20958;-59
2023/12/02 12:30:14;;;;;;;16.70;11.77;;;1.30;99.90;;;;;;5075106;28;20944;-59
2023/12/02 12:32:41;;;;;;;19.53;11.70;;;1.40;99.90;;;;;;5074732;28;20496;-60
2023/12/02 12:35:14;;;;;;;21.27;12.77;;;1.40;99.90;;;;;;5078527;28;20904;-58
2023/12/02 12:37:42;;;;;;;18.73;13.97;;;1.40;99.90;;;;;;5078523;28;20461;-59
2023/12/02 12:40:10;;;;;;;16.87;12.53;;;1.60;99.90;;;;;;5078514;28;20436;-59
2023/12/02 12:42:48;;;;;;;15.13;12.17;;;1.60;99.90;;;;;;5078734;28;20589;-60
2023/12/02 12:45:16;;;;;;;16.80;13.07;;;1.60;99.90;;;;;;5079976;28;20549;-60
2023/12/02 12:47:45;;;;;;;17.23;13.10;;;1.50;99.90;;;;;;5079354;28;20488;-60